createdAt,value
2022-08-31T00:01:37.018Z,1.42
2022-08-31T00:07:04.416Z,1.69
2022-08-31T00:12:30.594Z,1.61
2022-08-31T00:17:57.894Z,1.41
2022-08-31T00:23:26.658Z,1.40
2022-08-31T00:28:52.803Z,1.51
2022-08-31T00:34:15.047Z,1.43
2022-08-31T00:39:42.687Z,1.52
2022-08-31T00:45:09.250Z,1.73
2022-08-31T00:50:34.057Z,1.79
2022-08-31T00:55:59.702Z,1.49
2022-08-31T01:01:27.441Z,1.55
2022-08-31T01:06:49.191Z,1.84
2022-08-31T01:12:12.058Z,1.82
2022-08-31T01:17:34.164Z,1.73
2022-08-31T01:23:01.420Z,1.46
2022-08-31T01:28:24.033Z,1.90
2022-08-31T01:33:49.737Z,1.68
2022-08-31T01:39:17.263Z,2.03
2022-08-31T01:44:39.305Z,1.48
2022-08-31T01:50:01.369Z,1.79
2022-08-31T01:55:25.305Z,1.69
2022-08-31T02:00:48.998Z,1.89
2022-08-31T02:06:12.686Z,1.96
2022-08-31T02:11:36.541Z,1.63
2022-08-31T02:16:58.959Z,1.64
2022-08-31T02:22:27.215Z,1.50
2022-08-31T02:27:54.302Z,1.87
2022-08-31T02:33:19.742Z,1.63
2022-08-31T02:38:46.374Z,1.47
2022-08-31T02:44:13.665Z,2.20
2022-08-31T02:49:42.141Z,1.83
2022-08-31T02:55:09.506Z,2.15
2022-08-31T03:00:33.705Z,2.02
2022-08-31T03:06:00.437Z,2.25
2022-08-31T03:11:26.897Z,1.90
2022-08-31T03:16:51.799Z,2.06
2022-08-31T03:22:15.778Z,2.25
2022-08-31T03:27:41.685Z,2.20
2022-08-31T03:33:08.181Z,2.26
2022-08-31T03:38:35.842Z,2.12
2022-08-31T03:44:03.323Z,2.50
2022-08-31T03:49:29.326Z,2.43
2022-08-31T03:54:51.050Z,2.67
2022-08-31T04:00:17.810Z,2.70
2022-08-31T04:05:43.742Z,2.92
2022-08-31T04:11:10.741Z,3.02
2022-08-31T04:16:34.042Z,2.79
2022-08-31T04:21:59.571Z,3.28
2022-08-31T04:27:21.621Z,2.84
2022-08-31T04:32:48.906Z,3.08
2022-08-31T04:38:12.102Z,2.59
2022-08-31T04:43:38.630Z,2.53
2022-08-31T04:49:03.574Z,2.72
2022-08-31T04:54:25.091Z,2.31
2022-08-31T04:59:50.588Z,1.93
2022-08-31T05:05:18.166Z,1.85
2022-08-31T05:10:45.706Z,1.90
2022-08-31T05:16:10.890Z,1.85
2022-08-31T05:21:33.551Z,1.52
2022-08-31T05:26:59.674Z,1.86
2022-08-31T05:32:25.383Z,1.84
2022-08-31T05:37:48.762Z,2.05
2022-08-31T05:43:11.533Z,1.73
2022-08-31T05:48:33.001Z,1.72
2022-08-31T05:53:55.911Z,1.92
2022-08-31T05:59:19.647Z,2.08
2022-08-31T06:04:41.884Z,2.46
2022-08-31T06:10:03.996Z,2.30
2022-08-31T06:15:28.069Z,2.03
2022-08-31T06:20:49.942Z,2.04
2022-08-31T06:26:18.537Z,2.00
2022-08-31T06:31:40.379Z,2.20
2022-08-31T06:37:01.541Z,1.82
2022-08-31T06:42:23.386Z,2.49
2022-08-31T06:47:45.001Z,2.82
2022-08-31T06:53:06.643Z,2.45
2022-08-31T06:58:27.809Z,2.96
2022-08-31T07:03:49.195Z,2.79
2022-08-31T07:09:11.110Z,3.51
2022-08-31T07:14:32.557Z,2.78
2022-08-31T07:19:54.234Z,3.25
2022-08-31T07:25:17.991Z,3.58
2022-08-31T07:30:39.666Z,3.53
2022-08-31T07:36:01.714Z,3.35
2022-08-31T07:41:26.558Z,3.65
2022-08-31T07:46:48.418Z,3.44
2022-08-31T07:52:11.841Z,4.08
2022-08-31T07:57:33.893Z,3.83
2022-08-31T08:02:55.316Z,3.83
2022-08-31T08:08:16.877Z,3.67
2022-08-31T08:13:38.788Z,3.86
2022-08-31T08:19:02.801Z,4.29
2022-08-31T08:24:27.869Z,4.52
2022-08-31T08:29:55.090Z,4.28
2022-08-31T08:35:20.741Z,4.49
2022-08-31T08:40:42.881Z,4.01
2022-08-31T08:46:20.199Z,4.32
2022-08-31T08:51:34.318Z,4.33
2022-08-31T08:56:55.882Z,4.10
2022-08-31T09:02:18.489Z,4.49
2022-08-31T09:07:40.221Z,4.86
2022-08-31T09:13:07.121Z,5.32
2022-08-31T09:18:35.843Z,4.86
2022-08-31T09:24:06.044Z,4.70
2022-08-31T09:29:29.192Z,5.28
2022-08-31T09:34:54.540Z,5.52
2022-08-31T09:40:16.037Z,5.53
2022-08-31T09:45:43.400Z,6.45
2022-08-31T09:51:16.305Z,6.23
2022-08-31T09:56:45.114Z,6.63
2022-08-31T10:02:10.713Z,6.32
2022-08-31T10:07:43.871Z,6.68
2022-08-31T10:13:11.349Z,6.88
2022-08-31T10:18:39.752Z,7.27
2022-08-31T10:24:07.092Z,7.59
2022-08-31T10:29:36.018Z,8.66
2022-08-31T10:34:58.747Z,5.73
2022-08-31T10:40:23.075Z,4.60
2022-08-31T10:45:46.832Z,5.91
2022-08-31T10:51:13.349Z,6.24
2022-08-31T10:56:34.227Z,6.53
2022-08-31T11:01:56.542Z,6.61
2022-08-31T11:07:19.197Z,5.66
2022-08-31T11:12:51.799Z,6.42
2022-08-31T11:18:13.701Z,6.44
2022-08-31T11:23:53.823Z,6.11
2022-08-31T11:29:21.301Z,5.84
2022-08-31T11:34:51.049Z,6.92
2022-08-31T11:40:12.961Z,7.51
2022-08-31T11:45:57.677Z,7.19
2022-08-31T11:51:41.100Z,6.81
2022-08-31T11:57:08.046Z,6.27
2022-08-31T12:02:34.836Z,5.96
2022-08-31T12:08:04.162Z,5.96
2022-08-31T12:13:31.690Z,6.10
2022-08-31T12:18:58.447Z,6.10
2022-08-31T12:24:40.642Z,6.00
2022-08-31T12:30:04.270Z,6.17
2022-08-31T12:35:31.078Z,5.87
2022-08-31T12:40:59.478Z,6.12
2022-08-31T12:46:26.820Z,6.01
2022-08-31T12:51:56.530Z,6.10
2022-08-31T12:57:24.963Z,5.69
2022-08-31T13:02:51.490Z,5.49
2022-08-31T13:08:13.951Z,5.32
2022-08-31T13:13:38.695Z,5.16
2022-08-31T13:19:00.784Z,4.39
2022-08-31T13:24:22.714Z,4.64
2022-08-31T13:29:45.255Z,4.61
2022-08-31T13:35:06.831Z,4.73
2022-08-31T13:40:30.308Z,4.25
2022-08-31T13:45:51.999Z,4.06
2022-08-31T13:51:19.452Z,4.11
2022-08-31T13:56:47.324Z,3.95
2022-08-31T14:02:13.415Z,3.66
2022-08-31T14:07:54.500Z,3.80
2022-08-31T14:13:21.232Z,3.60
2022-08-31T14:18:43.724Z,3.48
2022-08-31T14:24:05.624Z,3.14
2022-08-31T14:29:47.110Z,3.21
2022-08-31T14:35:11.771Z,3.40
2022-08-31T14:40:32.003Z,2.10
2022-08-31T14:45:55.715Z,1.86
2022-08-31T14:51:17.981Z,1.68
2022-08-31T14:56:39.863Z,1.74
2022-08-31T15:02:02.064Z,2.00
2022-08-31T15:07:23.747Z,2.14
2022-08-31T15:12:45.694Z,1.93
2022-08-31T15:18:10.593Z,1.56
2022-08-31T15:23:32.593Z,1.79
2022-08-31T15:28:59.796Z,1.98
2022-08-31T15:34:28.708Z,1.83
2022-08-31T15:39:50.937Z,2.00
2022-08-31T15:45:13.243Z,1.83
2022-08-31T15:50:36.818Z,2.04
2022-08-31T15:56:02.585Z,1.84
2022-08-31T16:01:26.219Z,1.88
2022-08-31T16:06:48.159Z,1.84
2022-08-31T16:12:10.972Z,2.02
2022-08-31T16:17:32.845Z,2.17
2022-08-31T16:22:54.631Z,1.84
2022-08-31T16:28:16.754Z,1.76
2022-08-31T16:33:38.990Z,1.80
2022-08-31T16:39:00.884Z,1.43
2022-08-31T16:44:36.554Z,1.72
2022-08-31T16:49:54.361Z,1.85
2022-08-31T16:55:19.234Z,1.80
2022-08-31T17:00:44.837Z,1.81
2022-08-31T17:06:11.826Z,1.59
2022-08-31T17:11:40.325Z,1.71
2022-08-31T17:17:07.513Z,1.50
2022-08-31T17:22:33.889Z,1.70
2022-08-31T17:28:02.506Z,1.52
2022-08-31T17:33:26.900Z,1.58
2022-08-31T17:38:52.826Z,1.67
2022-08-31T17:44:20.274Z,1.86
2022-08-31T17:49:48.913Z,1.48
2022-08-31T17:55:14.277Z,1.86
2022-08-31T18:00:41.704Z,1.48
2022-08-31T18:06:07.145Z,1.79
2022-08-31T18:11:34.272Z,1.74
2022-08-31T18:17:00.148Z,1.93
2022-08-31T18:22:27.680Z,1.88
2022-08-31T18:27:51.845Z,2.05
2022-08-31T18:33:19.410Z,2.25
2022-08-31T18:38:46.263Z,1.92
2022-08-31T18:44:08.814Z,2.06
2022-08-31T18:49:35.859Z,2.04
2022-08-31T18:55:02.114Z,1.86
2022-08-31T19:07:12.770Z,2.31
2022-08-31T19:12:56.679Z,1.98
2022-08-31T19:18:35.174Z,2.12
2022-08-31T19:30:25.781Z,2.08
2022-08-31T19:36:08.764Z,2.46
2022-08-31T19:41:50.195Z,2.47
2022-08-31T19:47:24.940Z,2.25
2022-08-31T19:52:50.398Z,2.27
2022-08-31T19:58:16.688Z,2.15
2022-08-31T20:03:43.713Z,2.11
2022-08-31T20:09:08.620Z,2.39
2022-08-31T20:14:30.763Z,2.08
2022-08-31T20:19:52.627Z,2.09
2022-08-31T20:25:18.819Z,2.21
2022-08-31T20:30:36.609Z,1.68
2022-08-31T20:35:58.408Z,2.38
2022-08-31T20:41:27.959Z,2.27
2022-08-31T20:46:49.368Z,2.08
2022-08-31T20:52:10.919Z,2.07
2022-08-31T20:57:32.437Z,2.02
2022-08-31T21:02:58.387Z,2.32
2022-08-31T21:08:26.257Z,1.80
2022-08-31T21:13:52.818Z,1.60
2022-08-31T21:19:20.050Z,1.70
2022-08-31T21:24:45.882Z,2.00
2022-08-31T21:30:11.286Z,1.30
2022-08-31T21:35:38.950Z,1.67
2022-08-31T21:41:05.561Z,1.53
2022-08-31T21:46:27.448Z,1.49
2022-08-31T21:51:51.678Z,1.73
2022-08-31T21:57:16.996Z,1.47
2022-08-31T22:02:43.505Z,1.76
2022-08-31T22:08:10.779Z,1.41
2022-08-31T22:13:33.030Z,1.25
2022-08-31T22:19:01.664Z,1.23
2022-08-31T22:24:27.679Z,1.31
2022-08-31T22:29:49.763Z,1.27
2022-08-31T22:35:18.041Z,1.20
2022-08-31T22:40:46.039Z,1.37
2022-08-31T22:46:13.696Z,1.27
2022-08-31T22:51:40.845Z,1.11
2022-08-31T22:57:06.791Z,1.30
2022-08-31T23:02:32.132Z,1.15
2022-08-31T23:07:55.056Z,1.04
2022-08-31T23:13:24.030Z,1.14
2022-08-31T23:18:51.852Z,1.19
2022-08-31T23:24:19.273Z,1.10
2022-08-31T23:29:45.974Z,1.45
2022-08-31T23:35:11.099Z,1.35
2022-08-31T23:40:39.098Z,1.08
2022-08-31T23:46:00.768Z,1.43
2022-08-31T23:51:27.724Z,1.24
2022-08-31T23:56:54.622Z,1.24
